Latest Weather Observations for Nowra

IDN60901

Issued at 10:15 pm EST Monday 22 September 2014 (issued every 10 minutes, with the page automatically refreshed every 10 minutes)

About weather observations | Map of Canberra area stations | Latest observations for Canberra area | Other Formats
Station Details ID: 068072 Name: NOWRA RAN AIR STATION AWS Lat: -34.95 Lon: 150.54 Height: 109.0 m
Data from the previous 72 hours. | See also: Recent months at Nowra
Date/Time
EST
Tmp

°C
App
Tmp
°C
Dew
Point
°C
Rel
Hum
%
Delta-T

°C
Wind Press
QNH
hPa
Press
MSL
hPa
Rain
since
9 am
mm
Dir
 
Spd
km/h
Gust
km/h
Spd
kts
Gust
kts
22/10:00pm 10.3 8.8 9.1 92 0.6 WNW 7 11 4 6 1029.9 - 0.0
22/09:30pm 10.1 8.7 9.0 93 0.5 W 6 9 3 5 1029.8 - 0.0
22/09:00pm 9.8 9.5 8.6 92 0.6 CALM 0 0 0 0 1029.8 1029.8 0.0
22/08:30pm 9.1 6.9 7.9 92 0.6 SW 9 11 5 6 1029.7 - 0.0
22/08:00pm 9.9 8.2 7.7 86 1.1 WSW 6 7 3 4 1029.5 - 0.0
22/07:30pm 11.2 9.3 7.7 79 1.7 S 7 9 4 5 1029.4 - 0.0
22/07:00pm 13.7 11.8 9.0 73 2.4 E 9 11 5 6 1029.0 - 0.0
22/06:30pm 14.3 12.4 9.1 71 2.7 ESE 9 13 5 7 1028.8 - 0.0
22/06:00pm 14.9 12.6 9.1 68 3.0 ESE 11 13 6 7 1028.6 1028.6 0.0
22/05:30pm 15.9 13.6 8.9 63 3.6 E 11 17 6 9 1028.4 - 0.0
22/05:00pm 16.6 12.5 8.8 60 4.0 E 20 26 11 14 1028.2 - 0.0
22/04:30pm 17.3 13.6 9.5 60 4.1 E 19 22 10 12 1028.2 - 0.0
22/04:00pm 17.9 14.3 10.0 60 4.2 E 19 24 10 13 1028.1 - 0.0
22/03:30pm 18.0 14.1 9.4 57 4.5 ENE 20 28 11 15 1028.0 - 0.0
22/03:00pm 18.9 15.1 9.9 56 4.8 E 20 26 11 14 1028.0 1028.0 0.0
22/02:30pm 19.0 15.2 9.8 55 4.9 E 20 28 11 15 1028.2 - 0.0
22/02:00pm 19.2 15.4 9.7 54 5.1 ENE 20 26 11 14 1028.3 - 0.0
22/01:30pm 19.5 15.8 10.2 55 5.0 ENE 20 26 11 14 1028.4 - 0.0
22/01:00pm 19.6 16.3 9.5 52 5.4 NE 17 28 9 15 1028.7 - 0.0
22/12:30pm 19.7 16.3 9.0 50 5.7 NE 17 22 9 12 1029.0 - 0.0
22/12:00pm 19.2 15.5 9.4 53 5.2 ENE 19 22 10 12 1029.6 - 0.0
22/11:30am 19.1 16.6 8.4 50 5.6 NNE 11 17 6 9 1030.2 - 0.0
22/11:00am 18.3 16.7 8.0 51 5.3 ENE 6 15 3 8 1030.6 - 0.0
22/10:30am 17.8 16.3 8.4 54 4.9 ENE 6 17 3 9 1031.2 - 0.0
22/10:00am 16.8 14.7 8.2 57 4.4 N 9 15 5 8 1031.4 - 0.0
22/09:30am 16.5 14.8 8.2 58 4.2 NNE 7 15 4 8 1031.6 - 0.0
22/09:00am 15.4 13.1 7.4 59 3.9 N 9 17 5 9 1031.7 1031.7 0.0
22/08:30am 14.7 12.8 7.5 62 3.6 N 7 13 4 7 1031.8 - 0.0
22/08:00am 14.2 12.3 9.0 71 2.7 NW 9 11 5 6 1031.8 - 0.0
22/07:30am 12.8 10.9 8.9 77 2.0 WNW 9 13 5 7 1031.8 - 0.0
22/07:00am 11.1 9.1 8.8 86 1.1 WNW 9 13 5 7 1031.5 - 0.0
22/06:30am 9.8 7.1 9.0 95 0.4 W 13 13 7 7 1031.1 - 0.0
22/06:00am 8.4 6.7 7.6 95 0.4 WNW 6 9 3 5 1030.7 1030.7 0.0
22/05:30am 8.4 6.1 7.6 95 0.4 WNW 9 9 5 5 1030.3 - 0.0
22/05:00am 8.6 6.7 7.5 93 0.5 WNW 7 11 4 6 1029.9 - 0.0
22/04:30am 9.4 9.0 8.2 92 0.6 CALM 0 0 0 0 1029.8 - 0.0
22/04:00am 9.7 7.8 8.9 95 0.4 NW 9 11 5 6 1029.7 - 0.0
22/03:30am 8.0 7.0 7.2 95 0.4 WNW 2 11 1 6 1029.7 - 0.0
22/03:00am 8.2 7.5 7.1 93 0.5 WNW 0 0 0 0 1029.8 1029.8 0.0
22/02:30am 8.6 8.0 7.2 91 0.7 CALM 0 0 0 0 1030.0 - 0.0
22/02:00am 9.4 8.0 7.2 86 1.0 W 4 9 2 5 1030.0 - 0.0
22/01:30am 10.7 10.5 9.1 90 0.8 CALM 0 0 0 0 1030.3 - 0.0
22/01:00am 10.9 9.5 9.0 88 0.9 W 6 7 3 4 1030.6 - 0.0
22/12:30am 11.4 10.3 8.6 83 1.4 WSW 4 9 2 5 1030.8 - 0.0
22/12:00am 11.8 11.5 8.8 82 1.5 W 0 0 0 0 1030.9 1030.9 0.0
 
Date/Time
EST
Tmp

°C
App
Tmp
°C
Dew
Point
°C
Rel
Hum
%
Delta-T

°C
Wind Press
QNH
hPa
Press
MSL
hPa
Rain
since
9 am
mm
Dir
 
Spd
km/h
Gust
km/h
Spd
kts
Gust
kts
21/11:30pm 12.1 11.9 8.9 81 1.6 CALM 0 0 0 0 1031.1 - 0.0
21/11:00pm 11.9 11.1 9.5 85 1.2 SW 4 9 2 5 1031.2 - 0.0
21/10:30pm 11.6 10.2 9.5 87 1.1 WSW 7 9 4 5 1031.2 - 0.0
21/10:00pm 11.1 9.6 9.0 87 1.0 WSW 7 9 4 5 1031.3 - 0.0
21/09:30pm 11.4 9.0 8.6 83 1.4 SSW 11 11 6 6 1031.0 - 0.0
21/09:00pm 12.9 11.3 8.8 76 2.0 SW 7 9 4 5 1031.0 1031.0 0.0
21/08:30pm 13.1 10.9 9.4 78 1.9 S 11 15 6 8 1030.9 - 0.0
21/08:00pm 12.5 11.1 9.5 82 1.5 SSW 7 9 4 5 1030.5 - 0.0
21/07:30pm 11.6 9.6 8.8 83 1.4 SSW 9 11 5 6 1030.2 - 0.0
21/07:00pm 11.9 9.9 8.7 81 1.6 SSW 9 11 5 6 1029.8 - 0.0
21/06:30pm 12.5 10.9 8.8 78 1.9 S 7 7 4 4 1029.4 - 0.0
21/06:00pm 13.1 11.1 8.6 74 2.2 SE 9 11 5 6 1028.9 1028.9 0.0
21/05:30pm 13.9 11.4 8.3 69 2.8 ESE 11 15 6 8 1028.6 - 0.0
21/05:00pm 14.6 11.4 8.3 66 3.2 ESE 15 17 8 9 1028.2 - 0.0
21/04:30pm 15.4 11.7 7.9 61 3.8 ESE 17 20 9 11 1028.0 - 0.0
21/04:00pm 16.0 12.0 8.2 60 4.0 SE 19 24 10 13 1027.8 - 0.0
21/03:30pm 16.7 12.5 8.4 58 4.3 ESE 20 26 11 14 1027.6 - 0.0
21/03:00pm 17.3 13.2 8.7 57 4.4 ESE 20 24 11 13 1027.4 1027.4 0.0
21/02:30pm 18.3 14.8 8.8 54 5.0 SE 17 26 9 14 1027.3 - 0.0
21/02:00pm 17.6 13.4 8.2 54 4.8 ESE 20 28 11 15 1027.4 - 0.0
21/01:30pm 17.5 14.3 8.4 55 4.7 ESE 15 20 8 11 1027.6 - 0.0
21/01:00pm 18.1 14.2 7.2 49 5.5 ESE 17 22 9 12 1028.0 - 0.0
21/12:30pm 18.0 15.6 7.1 49 5.5 ESE 9 17 5 9 1028.5 - 0.0
21/12:00pm 17.6 15.3 7.4 51 5.1 ENE 9 13 5 7 1029.0 1029.0 0.0
21/11:30am 16.7 14.9 8.1 57 4.4 SSW 7 15 4 8 1029.7 - 0.0
21/11:00am 16.2 14.5 7.4 56 4.4 SSE 6 13 3 7 1030.0 - 0.0
21/10:30am 15.7 13.0 7.2 57 4.2 S 11 15 6 8 1030.4 - 0.0
21/10:00am 16.2 14.0 7.7 57 4.3 SSE 9 17 5 9 1030.6 - 0.0
21/09:30am 14.9 11.9 7.5 61 3.7 SSE 13 19 7 10 1030.7 - 0.0
21/09:00am 16.1 12.7 7.6 57 4.2 SE 15 26 8 14 1030.7 1030.7 0.0
21/08:30am 14.9 13.4 8.4 65 3.3 SE 6 11 3 6 1030.7 - 0.0
21/08:00am 13.7 11.7 8.7 72 2.5 S 9 13 5 7 1030.3 - 0.0
21/07:30am 12.9 11.7 9.7 81 1.6 WSW 6 7 3 4 1030.0 - 0.0
21/07:00am 12.0 9.7 9.0 82 1.5 WSW 11 15 6 8 1029.7 - 0.0
21/06:30am 10.8 9.7 9.9 94 0.5 SW 6 9 3 5 1029.0 - 0.0
21/06:00am 9.5 8.1 8.9 96 0.3 WNW 6 9 3 5 1028.7 1028.7 0.0
21/05:30am 9.0 7.3 8.5 97 0.2 NW 7 9 4 5 1028.3 - 0.0
21/05:00am 9.0 7.5 8.5 97 0.2 NW 6 9 3 5 1028.0 - 0.0
21/04:30am 9.3 7.3 8.5 95 0.4 WNW 9 11 5 6 1027.6 - 0.0
21/04:00am 9.7 8.1 8.1 90 0.8 SW 6 7 3 4 1027.4 - 0.0
21/03:30am 10.2 8.3 9.0 92 0.6 WNW 9 11 5 6 1027.4 - 0.0
21/03:00am 11.2 9.6 8.9 86 1.1 W 7 9 4 5 1027.6 1027.6 0.0
21/02:30am 11.7 9.8 9.1 84 1.3 SW 9 11 5 6 1027.5 - 0.0
21/02:00am 11.4 11.1 8.8 84 1.3 CALM 0 0 0 0 1027.9 - 0.0
21/01:30am 11.5 10.1 9.4 87 1.1 W 7 9 4 5 1028.2 - 0.0
21/01:00am 10.9 9.4 8.5 85 1.2 WNW 6 11 3 6 1028.3 - 0.0
21/12:30am 11.5 11.3 8.9 84 1.3 CALM 0 0 0 0 1028.4 - 0.0
21/12:00am 11.6 10.2 9.0 84 1.3 W 6 9 3 5 1028.4 1028.4 0.0
 
Date/Time
EST
Tmp

°C
App
Tmp
°C
Dew
Point
°C
Rel
Hum
%
Delta-T

°C
Wind Press
QNH
hPa
Press
MSL
hPa
Rain
since
9 am
mm
Dir
 
Spd
km/h
Gust
km/h
Spd
kts
Gust
kts
20/11:30pm 11.6 9.2 8.8 83 1.4 W 11 13 6 7 1028.4 - 0.0
20/11:00pm 11.7 10.0 8.4 80 1.6 W 7 9 4 5 1028.5 - 0.0
20/10:30pm 11.5 10.0 8.4 81 1.5 W 6 7 3 4 1028.6 - 0.0
20/10:00pm 10.9 9.2 8.5 85 1.2 WNW 7 9 4 5 1028.5 - 0.0
20/09:30pm 9.4 7.6 7.3 87 1.0 WNW 6 7 3 4 1028.3 - 0.0
20/09:00pm 9.6 7.7 7.4 86 1.0 NW 7 9 4 5 1028.1 1028.1 0.0
20/08:30pm 9.1 8.3 6.4 83 1.3 CALM 0 0 0 0 1027.9 - 0.0
20/08:00pm 10.3 9.7 7.2 81 1.5 CALM 0 0 0 0 1027.5 - 0.0
20/07:30pm 9.9 8.1 7.2 83 1.3 W 6 7 3 4 1027.2 - 0.0
20/07:00pm 10.2 8.2 6.9 80 1.6 SSW 7 9 4 5 1026.8 - 0.0
20/06:30pm 11.8 9.6 6.3 69 2.6 SSE 7 11 4 6 1026.3 - 0.0
20/06:00pm 13.3 10.3 6.2 62 3.4 SSE 11 11 6 6 1025.7 1025.7 0.0
20/05:30pm 14.5 11.3 5.3 54 4.4 SSE 11 19 6 10 1025.3 - 0.0
20/05:00pm 15.5 12.1 5.7 52 4.7 ESE 13 17 7 9 1024.7 - 0.0
20/04:30pm 16.4 12.4 5.1 47 5.4 ESE 15 19 8 10 1024.3 - 0.0
20/04:00pm 16.8 11.4 2.4 38 6.5 ESE 20 24 11 13 1024.1 - 0.0
20/03:30pm 16.9 11.7 2.5 38 6.6 SE 19 26 10 14 1023.9 - 0.0
20/03:00pm 17.0 11.8 3.3 40 6.3 SE 20 30 11 16 1023.8 1023.7 0.0
20/02:30pm 17.6 12.4 3.5 39 6.6 SSE 20 30 11 16 1023.7 - 0.0
20/02:00pm 17.2 11.0 2.0 36 6.9 SSE 24 30 13 16 1023.9 - 0.0
20/01:30pm 17.2 11.2 3.1 39 6.5 SE 24 30 13 16 1023.8 - 0.0
20/01:00pm 17.6 12.0 3.5 39 6.6 SE 22 32 12 17 1023.9 - 0.0
20/12:30pm 16.7 10.8 2.0 37 6.6 SSE 22 30 12 16 1024.1 - 0.0
20/12:00pm 16.9 10.9 3.2 40 6.3 SE 24 35 13 19 1024.4 1024.3 0.0
20/11:30am 16.9 11.5 2.5 38 6.6 S 20 24 11 13 1024.4 - 0.0
20/11:00am 16.7 13.9 3.0 40 6.3 SE 7 15 4 8 1024.5 - 0.0
20/10:30am 16.4 12.1 3.5 42 6.0 SSE 15 20 8 11 1024.7 - 0.0
20/10:00am 15.7 11.3 2.5 41 5.9 SSE 15 22 8 12 1025.0 - 0.0
20/09:30am 15.7 11.6 4.4 47 5.3 S 15 22 8 12 1025.0 - 0.0
20/09:00am 14.8 9.9 4.2 49 4.9 S 19 24 10 13 1024.9 1024.9 0.0
20/08:30am 14.0 9.5 5.9 58 3.9 S 19 24 10 13 1024.8 - 0.0
20/08:00am 13.9 9.4 6.3 60 3.7 S 19 24 10 13 1024.5 - 0.0
20/07:30am 12.1 11.0 7.0 71 2.5 WNW 2 13 1 7 1024.3 - 0.0
20/07:00am 8.7 5.8 4.5 75 1.9 NW 9 11 5 6 1023.9 - 0.0
20/06:30am 7.2 4.0 3.3 76 1.7 WNW 9 11 5 6 1023.4 - 0.0
20/06:00am 6.7 3.1 3.0 77 1.5 NW 11 13 6 7 1022.8 1022.8 0.0
20/05:30am 6.2 2.9 2.7 78 1.5 W 9 11 5 6 1022.4 - 0.0
20/05:00am 7.2 3.2 2.7 73 1.9 WNW 13 17 7 9 1021.8 - 0.0
20/04:30am 7.4 3.8 2.7 72 2.0 WNW 11 15 6 8 1021.3 - 0.0
20/04:00am 7.5 3.4 2.4 70 2.1 WNW 13 17 7 9 1020.8 - 0.0
20/03:30am 7.7 3.3 2.6 70 2.1 NW 15 20 8 11 1020.7 - 0.0
20/03:00am 7.5 3.0 2.4 70 2.1 WNW 15 17 8 9 1020.7 1020.7 0.0
20/02:30am 7.8 3.0 2.5 69 2.2 W 17 20 9 11 1020.7 - 0.0
20/02:00am 7.9 3.1 2.8 70 2.2 WNW 17 20 9 11 1020.7 - 0.0
20/01:30am 8.0 3.7 3.1 71 2.1 NW 15 19 8 10 1020.8 - 0.0
20/01:00am 8.1 4.1 2.6 68 2.3 WNW 13 17 7 9 1021.1 - 0.0
20/12:30am 7.7 5.0 2.6 70 2.1 WNW 6 9 3 5 1021.2 - 0.0
20/12:00am 8.3 4.3 2.8 68 2.3 WNW 13 17 7 9 1021.3 1021.3 0.0
 
Date/Time
EST
Tmp

°C
App
Tmp
°C
Dew
Point
°C
Rel
Hum
%
Delta-T

°C
Wind Press
QNH
hPa
Press
MSL
hPa
Rain
since
9 am
mm
Dir
 
Spd
km/h
Gust
km/h
Spd
kts
Gust
kts
19/11:30pm 8.5 4.1 2.7 67 2.5 WNW 15 19 8 10 1021.4 - 0.0
19/11:00pm 9.0 5.0 2.6 64 2.7 WNW 13 15 7 8 1021.6 - 0.0
19/10:30pm 9.3 5.3 2.9 64 2.7 WNW 13 17 7 9 1021.6 - 0.0

Latest Capital City Observations: Canberra | Sydney | Melbourne | Brisbane | Adelaide | Perth | Hobart | Darwin

Other Formats:

Comma delimited format used in spreadsheet applications
http://www.bom.gov.au/fwo/IDN60903/IDN60903.94750.axf

JavaScript Object Notation format (JSON) in row-major order
http://www.bom.gov.au/fwo/IDN60903/IDN60903.94750.json